createdAt,value
2018-09-27T00:00:56.314Z,15.92
2018-09-27T00:03:24.660Z,15.86
2018-09-27T00:05:54.278Z,15.84
2018-09-27T00:08:22.650Z,15.89
2018-09-27T00:10:51.044Z,15.95
2018-09-27T00:13:19.368Z,15.96
2018-09-27T00:15:47.696Z,15.97
2018-09-27T00:18:16.008Z,16.04
2018-09-27T00:20:44.342Z,15.90
2018-09-27T00:23:12.678Z,15.94
2018-09-27T00:25:41.575Z,15.97
2018-09-27T00:28:10.017Z,16.03
2018-09-27T00:30:38.536Z,16.00
2018-09-27T00:33:06.847Z,16.01
2018-09-27T00:35:35.191Z,16.03
2018-09-27T00:38:03.520Z,16.05
2018-09-27T00:40:31.967Z,16.15
2018-09-27T00:43:00.324Z,16.01
2018-09-27T00:45:28.637Z,16.16
2018-09-27T00:47:56.955Z,16.16
2018-09-27T00:50:25.274Z,16.10
2018-09-27T00:52:53.592Z,16.13
2018-09-27T00:55:22.108Z,16.14
2018-09-27T00:57:50.436Z,16.07
2018-09-27T01:00:18.748Z,16.06
2018-09-27T01:02:47.091Z,16.10
2018-09-27T01:05:15.408Z,16.06
2018-09-27T01:07:43.718Z,16.10
2018-09-27T01:10:12.064Z,16.12
2018-09-27T01:12:40.375Z,16.08
2018-09-27T01:15:08.709Z,16.19
2018-09-27T01:17:37.140Z,16.08
2018-09-27T01:20:05.492Z,16.09
2018-09-27T01:22:33.808Z,16.08
2018-09-27T01:25:02.156Z,16.09
2018-09-27T01:27:30.504Z,16.15
2018-09-27T01:29:58.832Z,16.08
2018-09-27T01:32:27.217Z,16.07
2018-09-27T01:34:55.524Z,16.16
2018-09-27T01:37:23.964Z,16.08
2018-09-27T01:39:52.736Z,16.06
2018-09-27T01:42:21.072Z,16.17
2018-09-27T01:44:49.390Z,16.10
2018-09-27T01:47:17.830Z,16.18
2018-09-27T01:49:46.165Z,16.08
2018-09-27T01:52:14.504Z,16.17
2018-09-27T01:54:42.877Z,16.21
2018-09-27T01:57:11.207Z,16.09
2018-09-27T01:59:39.544Z,16.09
2018-09-27T02:02:08.002Z,15.99
2018-09-27T02:04:36.335Z,16.11
2018-09-27T02:07:04.884Z,16.12
2018-09-27T02:09:33.192Z,16.06
2018-09-27T02:12:01.518Z,16.02
2018-09-27T02:14:29.956Z,16.06
2018-09-27T02:16:58.267Z,16.15
2018-09-27T02:19:26.588Z,16.13
2018-09-27T02:21:54.962Z,16.21
2018-09-27T02:24:23.272Z,16.18
2018-09-27T02:26:51.623Z,16.19
2018-09-27T02:29:19.980Z,16.17
2018-09-27T02:31:48.306Z,16.25
2018-09-27T02:34:16.631Z,16.15
2018-09-27T02:36:44.980Z,16.26
2018-09-27T02:39:13.415Z,16.26
2018-09-27T02:41:41.821Z,16.16
2018-09-27T02:44:10.181Z,16.19
2018-09-27T02:46:38.518Z,16.23
2018-09-27T02:49:06.830Z,16.30
2018-09-27T02:51:35.193Z,16.31
2018-09-27T02:54:03.573Z,16.27
2018-09-27T02:56:31.892Z,16.31
2018-09-27T02:59:00.264Z,16.31
2018-09-27T03:01:28.580Z,16.33
2018-09-27T03:03:56.884Z,16.35
2018-09-27T03:06:25.236Z,16.32
2018-09-27T03:08:53.564Z,16.37
2018-09-27T03:11:21.884Z,16.41
2018-09-27T03:13:50.283Z,16.31
2018-09-27T03:16:18.603Z,16.32
2018-09-27T03:18:46.932Z,16.28
2018-09-27T03:21:15.284Z,16.39
2018-09-27T03:23:43.596Z,16.28
2018-09-27T03:26:11.916Z,16.30
2018-09-27T03:28:40.472Z,16.29
2018-09-27T03:31:08.856Z,16.28
2018-09-27T03:33:37.192Z,16.32
2018-09-27T03:36:05.559Z,16.27
2018-09-27T03:38:33.893Z,16.27
2018-09-27T03:41:02.260Z,16.17
2018-09-27T03:43:30.616Z,16.27
2018-09-27T03:45:58.944Z,16.31
2018-09-27T03:48:27.270Z,16.24
2018-09-27T03:50:55.670Z,16.16
2018-09-27T03:53:23.995Z,16.12
2018-09-27T03:55:52.321Z,16.25
2018-09-27T03:58:20.681Z,16.17
2018-09-27T04:00:49.021Z,16.24
2018-09-27T04:03:17.398Z,16.16
2018-09-27T04:05:45.728Z,16.07
2018-09-27T04:08:14.069Z,16.09
2018-09-27T04:10:42.372Z,16.16
2018-09-27T04:13:10.717Z,15.99
2018-09-27T04:15:39.034Z,15.98
2018-09-27T04:18:07.360Z,15.99
2018-09-27T04:20:49.952Z,16.00
2018-09-27T04:23:19.444Z,15.95
2018-09-27T04:25:47.773Z,15.87
2018-09-27T04:28:16.137Z,15.82
2018-09-27T04:30:44.462Z,15.79
2018-09-27T04:33:12.785Z,15.84
2018-09-27T04:35:41.140Z,15.83
2018-09-27T04:38:09.486Z,15.86
2018-09-27T04:40:37.808Z,15.96
2018-09-27T04:43:06.424Z,15.91
2018-09-27T04:45:34.748Z,15.89
2018-09-27T04:48:03.113Z,15.89
2018-09-27T04:50:31.473Z,15.89
2018-09-27T04:52:59.808Z,15.91
2018-09-27T04:55:28.137Z,15.87
2018-09-27T04:57:56.497Z,15.91
2018-09-27T05:00:24.820Z,15.90
2018-09-27T05:02:53.152Z,15.92
2018-09-27T05:05:21.525Z,15.88
2018-09-27T05:07:49.852Z,16.03
2018-09-27T05:10:18.184Z,16.04
2018-09-27T05:12:46.582Z,16.04
2018-09-27T05:15:14.913Z,16.06
2018-09-27T05:17:43.235Z,16.09
2018-09-27T05:20:11.597Z,16.16
2018-09-27T05:22:39.933Z,16.11
2018-09-27T05:25:08.272Z,16.12
2018-09-27T05:27:36.946Z,16.04
2018-09-27T05:30:05.256Z,16.01
2018-09-27T05:32:33.577Z,16.04
2018-09-27T05:35:02.051Z,15.96
2018-09-27T05:37:30.377Z,15.94
2018-09-27T05:39:58.697Z,16.02
2018-09-27T05:42:27.052Z,15.92
2018-09-27T05:44:55.540Z,16.00
2018-09-27T05:47:23.861Z,15.95
2018-09-27T05:49:52.241Z,16.03
2018-09-27T05:52:20.796Z,16.05
2018-09-27T05:54:49.111Z,16.07
2018-09-27T05:57:17.474Z,16.05
2018-09-27T05:59:45.780Z,16.11
2018-09-27T06:02:14.132Z,16.10
2018-09-27T06:04:42.725Z,16.15
2018-09-27T06:07:11.048Z,16.13
2018-09-27T06:09:39.463Z,16.02
2018-09-27T06:12:07.862Z,16.10
2018-09-27T06:14:36.184Z,16.21
2018-09-27T06:17:04.629Z,16.26
2018-09-27T06:19:33.147Z,16.33
2018-09-27T06:22:01.480Z,16.25
2018-09-27T06:24:29.812Z,16.28
2018-09-27T06:26:58.181Z,16.23
2018-09-27T06:29:26.523Z,16.30
2018-09-27T06:31:54.840Z,16.36
2018-09-27T06:34:23.209Z,16.45
2018-09-27T06:36:51.529Z,16.57
2018-09-27T06:39:19.861Z,16.84
2018-09-27T06:41:48.249Z,16.81
2018-09-27T06:44:16.692Z,16.86
2018-09-27T06:46:45.097Z,16.97
2018-09-27T06:49:13.457Z,16.78
2018-09-27T06:51:41.796Z,16.79
2018-09-27T06:54:10.129Z,16.92
2018-09-27T06:56:38.564Z,16.89
2018-09-27T06:59:06.853Z,16.87
2018-09-27T07:01:35.298Z,16.82
2018-09-27T07:04:03.657Z,16.73
2018-09-27T07:06:31.985Z,16.77
2018-09-27T07:09:00.304Z,16.78
2018-09-27T07:11:28.688Z,16.76
2018-09-27T07:13:57.005Z,16.96
2018-09-27T07:16:25.354Z,17.16
2018-09-27T07:18:53.688Z,17.30
2018-09-27T07:21:22.011Z,17.27
2018-09-27T07:23:50.779Z,17.08
2018-09-27T07:26:19.157Z,16.98
2018-09-27T07:28:47.509Z,17.00
2018-09-27T07:31:15.887Z,17.10
2018-09-27T07:33:44.280Z,17.16
2018-09-27T07:36:12.632Z,17.25
2018-09-27T07:38:41.059Z,17.51
2018-09-27T07:41:09.361Z,17.53
2018-09-27T07:43:37.694Z,17.41
2018-09-27T07:46:06.033Z,17.51
2018-09-27T07:48:34.818Z,17.54
2018-09-27T07:51:03.140Z,17.72
2018-09-27T07:53:31.504Z,17.77
2018-09-27T07:56:00.054Z,17.74
2018-09-27T07:58:28.394Z,17.76
2018-09-27T08:00:56.724Z,18.17
2018-09-27T08:03:25.096Z,18.02
2018-09-27T08:05:53.425Z,18.05
2018-09-27T08:08:21.752Z,17.86
2018-09-27T08:10:50.138Z,17.59
2018-09-27T08:13:18.790Z,17.48
2018-09-27T08:15:47.110Z,17.94
2018-09-27T08:18:15.484Z,18.03
2018-09-27T08:20:43.947Z,17.83
2018-09-27T08:23:12.165Z,17.82
2018-09-27T08:25:40.544Z,17.72
2018-09-27T08:28:08.876Z,17.77
2018-09-27T08:30:37.283Z,17.72
2018-09-27T08:33:05.592Z,17.74
2018-09-27T08:35:33.916Z,17.64
2018-09-27T08:38:02.240Z,17.82
2018-09-27T08:40:30.608Z,17.61
2018-09-27T08:42:58.939Z,17.62
2018-09-27T08:45:27.638Z,17.85
2018-09-27T08:47:55.657Z,17.98
2018-09-27T08:50:24.117Z,17.98
2018-09-27T08:52:52.454Z,18.13
2018-09-27T08:55:21.088Z,18.00
2018-09-27T08:57:49.456Z,18.08
2018-09-27T09:00:17.796Z,18.23
2018-09-27T09:02:46.746Z,18.09
2018-09-27T09:05:15.093Z,18.25
2018-09-27T09:07:43.507Z,18.10
2018-09-27T09:10:12.644Z,18.21
2018-09-27T09:12:40.986Z,18.14
2018-09-27T09:15:09.328Z,18.12
2018-09-27T09:17:37.718Z,18.19
2018-09-27T09:20:06.829Z,18.32
2018-09-27T09:22:35.157Z,18.30
2018-09-27T09:25:03.636Z,18.78
2018-09-27T09:27:32.161Z,18.79
2018-09-27T09:30:00.547Z,18.79
2018-09-27T09:32:29.053Z,18.66
2018-09-27T09:34:57.382Z,18.53
2018-09-27T09:37:25.720Z,18.76
2018-09-27T09:39:54.269Z,18.83
2018-09-27T09:42:22.609Z,18.74
2018-09-27T09:44:50.945Z,19.01
2018-09-27T09:47:19.437Z,18.90
2018-09-27T09:49:47.769Z,18.90
2018-09-27T09:52:16.169Z,18.63
2018-09-27T09:54:44.548Z,18.60
2018-09-27T09:57:12.900Z,18.98
2018-09-27T09:59:41.228Z,18.57
2018-09-27T10:02:09.581Z,18.85
2018-09-27T10:04:37.908Z,18.67
2018-09-27T10:07:06.376Z,18.55
2018-09-27T10:09:34.757Z,18.44
2018-09-27T10:12:03.112Z,18.75
2018-09-27T10:14:31.660Z,19.37
2018-09-27T10:17:00.037Z,19.04
2018-09-27T10:19:28.481Z,18.44
2018-09-27T10:21:57.047Z,18.35
2018-09-27T10:24:25.389Z,18.41
2018-09-27T10:26:53.760Z,18.34
2018-09-27T10:29:22.340Z,18.22
2018-09-27T10:31:50.742Z,18.34
2018-09-27T10:34:19.158Z,18.39
2018-09-27T10:36:47.759Z,18.77
2018-09-27T10:39:16.081Z,18.85
2018-09-27T10:41:44.441Z,18.90
2018-09-27T10:44:13.068Z,19.10
2018-09-27T10:46:41.413Z,19.12
2018-09-27T10:49:10.653Z,19.49
2018-09-27T10:51:39.010Z,19.85
2018-09-27T10:54:07.893Z,19.47
2018-09-27T10:56:36.512Z,19.52
2018-09-27T10:59:04.849Z,19.46
2018-09-27T11:01:33.755Z,19.19
2018-09-27T11:04:02.376Z,19.09
2018-09-27T11:06:30.700Z,19.07
2018-09-27T11:08:59.057Z,19.28
2018-09-27T11:11:27.713Z,19.52
2018-09-27T11:13:56.092Z,19.39
2018-09-27T11:16:24.612Z,19.12
2018-09-27T11:18:53.053Z,19.26
2018-09-27T11:21:21.426Z,19.56
2018-09-27T11:23:49.815Z,19.51
2018-09-27T11:26:18.591Z,19.25
2018-09-27T11:28:52.303Z,19.18
2018-09-27T11:31:26.598Z,19.14
2018-09-27T11:33:54.950Z,19.49
2018-09-27T11:36:23.545Z,19.40
2018-09-27T11:38:51.885Z,19.33
2018-09-27T11:41:20.221Z,19.48
2018-09-27T11:43:48.582Z,19.41
2018-09-27T11:46:16.929Z,19.59
2018-09-27T11:48:45.420Z,19.42
2018-09-27T11:51:13.745Z,19.73
2018-09-27T11:53:42.084Z,19.71
2018-09-27T11:56:10.465Z,19.67
2018-09-27T11:58:38.784Z,19.65
2018-09-27T12:01:07.196Z,19.47
2018-09-27T12:03:35.711Z,19.65
2018-09-27T12:06:04.028Z,19.88
2018-09-27T12:08:32.353Z,19.93
2018-09-27T12:11:00.826Z,19.72
2018-09-27T12:13:29.347Z,19.55
2018-09-27T12:15:57.592Z,19.78
2018-09-27T12:18:25.936Z,19.80
2018-09-27T12:20:54.256Z,19.89
2018-09-27T12:23:24.214Z,19.91
2018-09-27T12:25:52.659Z,19.92
2018-09-27T12:28:21.544Z,19.79
2018-09-27T12:30:49.966Z,19.60
2018-09-27T12:33:18.335Z,19.56
2018-09-27T12:35:46.672Z,19.86
2018-09-27T12:38:15.056Z,19.76
2018-09-27T12:40:43.452Z,19.58
2018-09-27T12:43:11.754Z,19.48
2018-09-27T12:45:40.240Z,19.27
2018-09-27T12:48:08.545Z,19.32
2018-09-27T12:50:37.560Z,19.18
2018-09-27T12:53:06.058Z,19.09
2018-09-27T12:55:35.190Z,19.12
2018-09-27T12:58:03.556Z,19.00
2018-09-27T13:00:32.230Z,19.15
2018-09-27T13:03:00.760Z,19.09
2018-09-27T13:05:28.965Z,18.95
2018-09-27T13:07:57.457Z,18.87
2018-09-27T13:10:26.118Z,18.93
2018-09-27T13:12:54.559Z,18.74
2018-09-27T13:15:23.002Z,18.73
2018-09-27T13:17:51.355Z,18.63
2018-09-27T13:20:19.758Z,18.68
2018-09-27T13:22:48.225Z,18.73
2018-09-27T13:25:16.590Z,18.61
2018-09-27T13:27:44.953Z,18.53
2018-09-27T13:30:13.398Z,18.51
2018-09-27T13:32:41.724Z,18.71
2018-09-27T13:35:10.081Z,18.63
2018-09-27T13:37:38.613Z,18.65
2018-09-27T13:40:07.045Z,18.79
2018-09-27T13:42:35.337Z,18.85
2018-09-27T13:45:03.842Z,19.08
2018-09-27T13:47:32.117Z,18.92
2018-09-27T13:50:00.448Z,18.96
2018-09-27T13:52:29.003Z,18.68
2018-09-27T13:54:57.367Z,18.87
2018-09-27T13:57:26.027Z,18.89
2018-09-27T13:59:54.348Z,18.75
2018-09-27T14:02:22.685Z,18.69
2018-09-27T14:04:51.118Z,18.63
2018-09-27T14:07:19.412Z,18.63
2018-09-27T14:09:47.936Z,18.62
2018-09-27T14:12:16.288Z,18.68
2018-09-27T14:14:44.687Z,18.67
2018-09-27T14:17:12.996Z,18.71
2018-09-27T14:19:41.349Z,18.60
2018-09-27T14:22:09.710Z,18.52
2018-09-27T14:24:38.070Z,18.64
2018-09-27T14:27:06.813Z,18.67
2018-09-27T14:29:35.269Z,18.66
2018-09-27T14:32:03.606Z,18.71
2018-09-27T14:34:31.936Z,18.66
2018-09-27T14:37:00.301Z,18.54
2018-09-27T14:39:28.637Z,18.51
2018-09-27T14:41:56.981Z,18.67
2018-09-27T14:44:25.337Z,18.65
2018-09-27T14:46:53.976Z,18.77
2018-09-27T14:49:22.344Z,18.74
2018-09-27T14:51:50.696Z,18.81
2018-09-27T14:54:19.115Z,19.01
2018-09-27T14:56:47.441Z,19.67
2018-09-27T14:59:15.922Z,20.47
2018-09-27T15:01:44.279Z,19.87
2018-09-27T15:04:12.628Z,19.62
2018-09-27T15:06:41.238Z,19.26
2018-09-27T15:09:10.866Z,19.17
2018-09-27T15:11:39.192Z,19.25
2018-09-27T15:14:07.924Z,19.24
2018-09-27T15:16:36.776Z,19.19
2018-09-27T15:19:05.466Z,19.01
2018-09-27T15:21:33.821Z,19.04
2018-09-27T15:24:02.605Z,19.01
2018-09-27T15:26:31.104Z,18.91
2018-09-27T15:28:59.441Z,18.94
2018-09-27T15:31:27.953Z,19.02
2018-09-27T15:33:56.353Z,18.88
2018-09-27T15:36:24.753Z,18.94
2018-09-27T15:38:53.416Z,18.84
2018-09-27T15:41:21.785Z,18.76
2018-09-27T15:43:50.353Z,18.82
2018-09-27T15:46:18.717Z,18.80
2018-09-27T15:48:47.052Z,18.71
2018-09-27T15:51:15.428Z,18.69
2018-09-27T15:53:43.773Z,18.73
2018-09-27T15:56:12.126Z,18.63
2018-09-27T15:58:40.637Z,18.63
2018-09-27T16:01:08.957Z,18.61
2018-09-27T16:03:37.301Z,18.64
2018-09-27T16:06:05.772Z,18.65
2018-09-27T16:08:34.141Z,18.55
2018-09-27T16:11:02.541Z,18.64
2018-09-27T16:13:30.931Z,18.58
2018-09-27T16:15:59.302Z,18.56
2018-09-27T16:18:34.277Z,18.63
2018-09-27T16:21:02.633Z,18.57
2018-09-27T16:23:31.063Z,18.63
2018-09-27T16:25:59.348Z,18.57
2018-09-27T16:28:29.673Z,18.55
2018-09-27T16:30:58.049Z,18.47
2018-09-27T16:33:26.420Z,18.52
2018-09-27T16:35:56.971Z,18.38
2018-09-27T16:38:25.344Z,18.42
2018-09-27T16:40:54.761Z,18.40
2018-09-27T16:43:23.116Z,18.45
2018-09-27T16:45:51.472Z,18.46
2018-09-27T16:48:19.833Z,18.53
2018-09-27T16:50:48.209Z,18.49
2018-09-27T16:53:16.564Z,18.51
2018-09-27T16:55:44.928Z,18.34
2018-09-27T16:58:14.386Z,18.46
2018-09-27T17:00:42.742Z,18.49
2018-09-27T17:03:11.137Z,18.49
2018-09-27T17:05:39.553Z,18.52
2018-09-27T17:08:07.942Z,18.54
2018-09-27T17:10:36.289Z,18.45
2018-09-27T17:13:04.680Z,18.49
2018-09-27T17:15:33.012Z,18.47
2018-09-27T17:18:01.354Z,18.58
2018-09-27T17:20:29.755Z,18.33
2018-09-27T17:22:58.121Z,18.44
2018-09-27T17:25:26.658Z,18.50
2018-09-27T17:27:55.016Z,18.51
2018-09-27T17:30:23.408Z,18.46
2018-09-27T17:32:51.874Z,18.59
2018-09-27T17:35:20.274Z,18.53
2018-09-27T17:37:48.701Z,18.51
2018-09-27T17:40:17.109Z,18.46
2018-09-27T17:42:45.425Z,18.49
2018-09-27T17:45:13.789Z,18.56
2018-09-27T17:47:42.142Z,18.40
2018-09-27T17:50:10.504Z,18.54
2018-09-27T17:52:38.875Z,18.48
2018-09-27T17:55:07.273Z,18.38
2018-09-27T17:57:35.621Z,18.50
2018-09-27T18:00:04.008Z,18.46
2018-09-27T18:02:32.461Z,18.46
2018-09-27T18:05:00.901Z,18.45
2018-09-27T18:07:29.257Z,18.35
2018-09-27T18:09:58.068Z,18.40
2018-09-27T18:12:26.413Z,18.34
2018-09-27T18:14:54.856Z,18.40
2018-09-27T18:17:23.177Z,18.45
2018-09-27T18:19:51.563Z,18.53
2018-09-27T18:22:19.919Z,18.40
2018-09-27T18:24:48.293Z,18.45
2018-09-27T18:27:16.667Z,18.44
2018-09-27T18:29:45.056Z,18.37
2018-09-27T18:32:13.391Z,18.30
2018-09-27T18:34:41.787Z,18.20
2018-09-27T18:37:10.223Z,18.28
2018-09-27T18:39:38.621Z,18.32
2018-09-27T18:42:07.068Z,18.28
2018-09-27T18:44:35.453Z,18.20
2018-09-27T18:47:04.029Z,18.26
2018-09-27T18:49:32.391Z,18.18
2018-09-27T18:52:00.797Z,18.13
2018-09-27T18:54:29.149Z,18.15
2018-09-27T18:56:57.504Z,18.06
2018-09-27T18:59:25.860Z,18.04
2018-09-27T19:01:54.557Z,18.01
2018-09-27T19:04:22.948Z,18.03
2018-09-27T19:06:51.312Z,18.13
2018-09-27T19:09:21.758Z,17.98
2018-09-27T19:11:50.105Z,17.94
2018-09-27T19:14:18.872Z,17.95
2018-09-27T19:16:47.273Z,17.97
2018-09-27T19:19:15.584Z,17.97
2018-09-27T19:21:43.924Z,17.99
2018-09-27T19:24:12.280Z,17.91
2018-09-27T19:26:40.637Z,17.88
2018-09-27T19:29:08.989Z,17.89
2018-09-27T19:31:37.333Z,17.87
2018-09-27T19:34:05.874Z,17.88
2018-09-27T19:36:34.254Z,17.89
2018-09-27T19:39:02.832Z,17.92
2018-09-27T19:41:31.117Z,17.89
2018-09-27T19:43:59.480Z,17.92
2018-09-27T19:46:27.890Z,17.89
2018-09-27T19:48:56.308Z,17.95
2018-09-27T19:51:24.659Z,17.98
2018-09-27T19:53:53.077Z,17.84
2018-09-27T19:56:21.471Z,17.78
2018-09-27T19:58:50.133Z,17.74
2018-09-27T20:01:18.511Z,17.81
2018-09-27T20:03:46.890Z,17.77
2018-09-27T20:06:15.255Z,17.77
2018-09-27T20:08:43.802Z,17.63
2018-09-27T20:11:12.154Z,17.61
2018-09-27T20:13:40.525Z,17.55
2018-09-27T20:16:08.996Z,17.57
2018-09-27T20:18:37.360Z,17.43
2018-09-27T20:21:05.706Z,17.29
2018-09-27T20:23:34.077Z,17.24
2018-09-27T20:26:02.415Z,17.27
2018-09-27T20:28:30.827Z,17.23
2018-09-27T20:30:59.112Z,17.17
2018-09-27T20:33:27.483Z,17.17
2018-09-27T20:35:58.964Z,17.19
2018-09-27T20:38:27.343Z,17.29
2018-09-27T20:40:55.681Z,17.27
2018-09-27T20:43:24.173Z,17.26
2018-09-27T20:45:52.496Z,17.32
2018-09-27T20:48:20.920Z,17.28
2018-09-27T20:50:49.260Z,17.29
2018-09-27T20:53:17.616Z,17.26
2018-09-27T20:55:45.970Z,17.21
2018-09-27T20:58:14.312Z,17.15
2018-09-27T21:00:42.631Z,17.11
2018-09-27T21:03:10.982Z,17.13
2018-09-27T21:05:39.264Z,17.12
2018-09-27T21:08:07.734Z,17.12
2018-09-27T21:10:36.052Z,17.10
2018-09-27T21:13:04.368Z,17.00
2018-09-27T21:15:32.663Z,17.03
2018-09-27T21:18:00.997Z,17.02
2018-09-27T21:20:29.316Z,17.01
2018-09-27T21:22:57.650Z,16.91
2018-09-27T21:25:26.055Z,16.88
2018-09-27T21:27:54.376Z,16.74
2018-09-27T21:30:22.684Z,16.44
2018-09-27T21:32:51.000Z,16.22
2018-09-27T21:35:19.307Z,16.08
2018-09-27T21:37:47.664Z,16.03
2018-09-27T21:40:15.969Z,15.86
2018-09-27T21:42:44.292Z,15.78
2018-09-27T21:45:12.613Z,15.68
2018-09-27T21:47:41.594Z,15.59
2018-09-27T21:50:10.002Z,15.58
2018-09-27T21:52:38.315Z,15.46
2018-09-27T21:55:06.692Z,15.52
2018-09-27T21:57:35.049Z,15.44
2018-09-27T22:00:03.445Z,15.45
2018-09-27T22:02:31.753Z,15.43
2018-09-27T22:05:00.098Z,15.34
2018-09-27T22:07:28.405Z,15.45
2018-09-27T22:09:57.972Z,15.44
2018-09-27T22:12:26.533Z,15.29
2018-09-27T22:14:55.236Z,15.26
2018-09-27T22:17:23.548Z,15.24
2018-09-27T22:19:52.221Z,15.20
2018-09-27T22:22:20.554Z,15.14
2018-09-27T22:24:48.929Z,15.24
2018-09-27T22:27:17.275Z,15.26
2018-09-27T22:29:45.650Z,15.21
2018-09-27T22:32:14.030Z,15.23
2018-09-27T22:34:42.397Z,15.21
2018-09-27T22:37:10.834Z,15.28
2018-09-27T22:39:39.236Z,15.29
2018-09-27T22:42:07.601Z,15.29
2018-09-27T22:44:35.987Z,15.31
2018-09-27T22:47:04.422Z,15.40
2018-09-27T22:49:32.889Z,15.35
2018-09-27T22:52:01.299Z,15.31
2018-09-27T22:54:29.805Z,15.20
2018-09-27T22:56:58.125Z,15.29
2018-09-27T22:59:26.502Z,15.15
2018-09-27T23:01:54.869Z,15.00
2018-09-27T23:04:23.254Z,15.16
2018-09-27T23:06:51.601Z,15.29
2018-09-27T23:09:20.013Z,15.16
2018-09-27T23:11:48.382Z,15.11
2018-09-27T23:14:16.765Z,15.06
2018-09-27T23:16:45.121Z,15.04
2018-09-27T23:19:13.546Z,14.99
2018-09-27T23:21:41.902Z,15.04
2018-09-27T23:24:10.387Z,14.82
2018-09-27T23:26:38.730Z,14.64
2018-09-27T23:29:07.362Z,14.78
2018-09-27T23:31:35.715Z,14.70
2018-09-27T23:34:04.448Z,14.83
2018-09-27T23:37:58.410Z,14.92
2018-09-27T23:40:26.762Z,14.78
2018-09-27T23:42:55.715Z,14.84
2018-09-27T23:45:24.334Z,14.63
2018-09-27T23:47:52.727Z,14.52
2018-09-27T23:50:21.115Z,14.32
2018-09-27T23:52:49.516Z,14.02
2018-09-27T23:55:17.897Z,14.12
2018-09-27T23:57:46.273Z,14.08
